createdAt,value
2017-04-21T00:00:35.630Z,1012.98
2017-04-21T00:01:45.690Z,1012.91
2017-04-21T00:02:56.039Z,1012.91
2017-04-21T00:04:06.361Z,1012.92
2017-04-21T00:05:16.402Z,1012.94
2017-04-21T00:06:26.732Z,1012.91
2017-04-21T00:07:37.065Z,1012.85
2017-04-21T00:08:47.693Z,1012.91
2017-04-21T00:09:58.022Z,1012.9
2017-04-21T00:11:08.333Z,1012.89
2017-04-21T00:12:18.672Z,1012.89
2017-04-21T00:13:29.025Z,1012.87
2017-04-21T00:14:39.354Z,1012.88
2017-04-21T00:15:49.373Z,1012.87
2017-04-21T00:16:59.398Z,1012.82
2017-04-21T00:18:09.735Z,1012.87
2017-04-21T00:19:19.806Z,1012.84
2017-04-21T00:20:29.830Z,1012.87
2017-04-21T00:21:40.173Z,1012.83
2017-04-21T00:22:50.495Z,1012.83
2017-04-21T00:24:00.826Z,1012.82
2017-04-21T00:25:11.156Z,1012.82
2017-04-21T00:26:21.480Z,1012.79
2017-04-21T00:27:31.805Z,1012.78
2017-04-21T00:28:41.930Z,1012.75
2017-04-21T00:29:51.961Z,1012.74
2017-04-21T00:31:02.282Z,1012.72
2017-04-21T00:32:12.649Z,1012.75
2017-04-21T00:33:22.988Z,1012.73
2017-04-21T00:34:33.061Z,1012.72
2017-04-21T00:35:43.483Z,1012.74
2017-04-21T00:36:53.817Z,1012.74
2017-04-21T00:38:04.143Z,1012.73
2017-04-21T00:39:14.507Z,1012.72
2017-04-21T00:40:24.536Z,1012.71
2017-04-21T00:41:34.246Z,1012.66
2017-04-21T00:42:44.604Z,1012.7
2017-04-21T00:43:54.934Z,1012.67
2017-04-21T00:45:05.266Z,1012.7
2017-04-21T00:46:15.288Z,1012.68
2017-04-21T00:47:25.301Z,1012.62
2017-04-21T00:48:35.337Z,1012.66
2017-04-21T00:49:45.364Z,1012.63
2017-04-21T00:50:55.065Z,1012.62
2017-04-21T00:52:05.388Z,1012.6
2017-04-21T00:53:15.723Z,1012.64
2017-04-21T00:54:26.051Z,1012.61
2017-04-21T00:55:36.052Z,1012.6
2017-04-21T00:56:46.391Z,1012.55
2017-04-21T00:57:56.709Z,1012.57
2017-04-21T00:59:06.729Z,1012.58
2017-04-21T01:00:16.754Z,1012.59
2017-04-21T01:01:26.770Z,1012.59
2017-04-21T01:02:37.095Z,1012.58
2017-04-21T01:03:47.434Z,1012.49
2017-04-21T01:04:57.771Z,1012.54
2017-04-21T01:06:07.790Z,1012.51
2017-04-21T01:07:18.186Z,1012.52
2017-04-21T01:08:28.191Z,1012.47
2017-04-21T01:09:38.531Z,1012.43
2017-04-21T01:10:49.025Z,1012.39
2017-04-21T01:11:59.062Z,1012.41
2017-04-21T01:13:09.084Z,1012.42
2017-04-21T01:14:19.125Z,1012.43
2017-04-21T01:15:29.459Z,1012.43
2017-04-21T01:16:39.791Z,1012.46
2017-04-21T01:17:50.111Z,1012.45
2017-04-21T01:19:00.442Z,1012.46
2017-04-21T01:20:10.771Z,1012.45
2017-04-21T01:21:20.794Z,1012.45
2017-04-21T01:22:30.822Z,1012.43
2017-04-21T01:23:41.198Z,1012.43
2017-04-21T01:24:51.530Z,1012.41
2017-04-21T01:26:01.855Z,1012.4
2017-04-21T01:27:12.187Z,1012.39
2017-04-21T01:28:22.205Z,1012.38
2017-04-21T01:29:32.230Z,1012.36
2017-04-21T01:30:42.566Z,1012.38
2017-04-21T01:31:52.898Z,1012.36
2017-04-21T01:33:03.227Z,1012.33
2017-04-21T01:34:13.584Z,1012.37
2017-04-21T01:35:23.901Z,1012.34
2017-04-21T01:36:34.231Z,1012.36
2017-04-21T01:37:44.258Z,1012.41
2017-04-21T01:38:54.585Z,1012.39
2017-04-21T01:40:04.906Z,1012.35
2017-04-21T01:41:14.978Z,1012.34
2017-04-21T01:42:25.318Z,1012.34
2017-04-21T01:43:35.328Z,1012.36
2017-04-21T01:44:45.764Z,1012.39
2017-04-21T01:45:56.137Z,1012.32
2017-04-21T01:47:06.594Z,1012.3
2017-04-21T01:48:16.832Z,1012.32
2017-04-21T01:49:27.164Z,1012.3
2017-04-21T01:50:37.244Z,1012.27
2017-04-21T01:51:47.591Z,1012.3
2017-04-21T01:52:57.911Z,1012.26
2017-04-21T01:54:08.245Z,1012.27
2017-04-21T01:55:18.270Z,1012.26
2017-04-21T01:56:28.282Z,1012.24
2017-04-21T01:57:38.615Z,1012.24
2017-04-21T01:58:48.962Z,1012.22
2017-04-21T01:59:59.288Z,1012.19
2017-04-21T02:01:09.659Z,1012.21
2017-04-21T02:02:19.679Z,1012.2
2017-04-21T02:03:29.996Z,1012.23
2017-04-21T02:04:40.353Z,1012.23
2017-04-21T02:05:50.676Z,1012.24
2017-04-21T02:07:01.008Z,1012.21
2017-04-21T02:08:11.335Z,1012.16
2017-04-21T02:09:21.342Z,1012.17
2017-04-21T02:10:31.355Z,1012.19
2017-04-21T02:11:41.696Z,1012.2
2017-04-21T02:12:52.026Z,1012.15
2017-04-21T02:14:02.389Z,1012.19
2017-04-21T02:15:12.390Z,1012.18
2017-04-21T02:16:22.768Z,1012.12
2017-04-21T02:17:33.108Z,1012.13
2017-04-21T02:18:43.435Z,1012.14
2017-04-21T02:19:53.476Z,1012.1
2017-04-21T02:21:03.917Z,1012.16
2017-04-21T02:22:14.265Z,1012.11
2017-04-21T02:23:24.682Z,1012.12
2017-04-21T02:24:35.018Z,1012.09
2017-04-21T02:25:45.073Z,1012.11
2017-04-21T02:26:55.412Z,1012.11
2017-04-21T02:28:05.758Z,1012.08
2017-04-21T02:29:16.088Z,1012.08
2017-04-21T02:30:26.412Z,1012.08
2017-04-21T02:31:36.740Z,1012.07
2017-04-21T02:32:47.064Z,1012.08
2017-04-21T02:33:57.463Z,1012.05
2017-04-21T02:35:07.815Z,1012.03
2017-04-21T02:36:18.135Z,1012.02
2017-04-21T02:37:28.457Z,1012.06
2017-04-21T02:38:38.791Z,1012
2017-04-21T02:39:48.811Z,1012
2017-04-21T02:40:59.135Z,1012.01
2017-04-21T02:42:09.465Z,1011.99
2017-04-21T02:43:19.809Z,1011.99
2017-04-21T02:44:29.831Z,1011.95
2017-04-21T02:45:40.160Z,1011.98
2017-04-21T02:46:50.515Z,1011.98
2017-04-21T02:48:00.519Z,1011.96
2017-04-21T02:49:10.863Z,1011.96
2017-04-21T02:50:21.200Z,1011.91
2017-04-21T02:51:31.587Z,1011.91
2017-04-21T02:52:41.602Z,1011.88
2017-04-21T02:53:51.623Z,1011.87
2017-04-21T02:55:01.948Z,1011.86
2017-04-21T02:56:11.945Z,1011.86
2017-04-21T02:57:22.002Z,1011.88
2017-04-21T02:58:32.458Z,1011.84
2017-04-21T02:59:42.566Z,1011.84
2017-04-21T03:00:53.162Z,1011.8
2017-04-21T03:02:03.493Z,1011.83
2017-04-21T03:32:34.320Z,1011.74
2017-04-21T03:33:44.924Z,1011.77
2017-04-21T03:34:55.270Z,1011.78
2017-04-21T03:36:05.288Z,1011.77
2017-04-21T03:37:15.612Z,1011.76
2017-04-21T03:38:25.321Z,1011.83
2017-04-21T03:39:35.329Z,1011.79
2017-04-21T03:40:45.662Z,1011.82
2017-04-21T03:41:55.997Z,1011.81
2017-04-21T03:43:06.038Z,1011.83
2017-04-21T03:44:16.046Z,1011.75
2017-04-21T03:45:26.053Z,1011.76
2017-04-21T03:46:36.383Z,1011.76
2017-04-21T03:47:46.726Z,1011.76
2017-04-21T03:48:57.046Z,1011.74
2017-04-21T03:50:06.755Z,1011.73
2017-04-21T03:51:17.075Z,1011.75
2017-04-21T03:52:27.088Z,1011.73
2017-04-21T03:53:37.404Z,1011.73
2017-04-21T03:54:47.450Z,1011.7
2017-04-21T03:55:57.798Z,1011.75
2017-04-21T03:57:08.125Z,1011.72
2017-04-21T03:58:18.462Z,1011.7
2017-04-21T03:59:28.814Z,1011.74
2017-04-21T04:00:39.144Z,1011.73
2017-04-21T04:01:49.470Z,1011.73
2017-04-21T04:02:59.804Z,1011.73
2017-04-21T04:04:09.826Z,1011.76
2017-04-21T04:05:20.157Z,1011.75
2017-04-21T04:06:30.489Z,1011.74
2017-04-21T04:07:40.812Z,1011.76
2017-04-21T04:08:51.381Z,1011.8
2017-04-21T04:10:01.433Z,1011.79
2017-04-21T04:11:11.750Z,1011.81
2017-04-21T04:12:22.167Z,1011.79
2017-04-21T04:13:32.483Z,1011.74
2017-04-21T04:14:42.847Z,1011.74
2017-04-21T04:15:52.863Z,1011.79
2017-04-21T04:17:02.903Z,1011.74
2017-04-21T04:18:13.226Z,1011.77
2017-04-21T04:19:23.567Z,1011.8
2017-04-21T04:20:33.580Z,1011.79
2017-04-21T04:21:43.894Z,1011.79
2017-04-21T04:22:53.921Z,1011.82
2017-04-21T04:24:04.258Z,1011.83
2017-04-21T04:25:14.336Z,1011.8
2017-04-21T04:26:24.658Z,1011.85
2017-04-21T04:27:34.680Z,1011.8
2017-04-21T04:28:44.692Z,1011.8
2017-04-21T04:29:54.391Z,1011.8
2017-04-21T04:31:04.713Z,1011.83
2017-04-21T04:32:15.047Z,1011.88
2017-04-21T04:33:25.365Z,1011.86
2017-04-21T04:34:35.357Z,1011.9
2017-04-21T04:35:45.701Z,1011.83
2017-04-21T04:36:55.724Z,1011.9
2017-04-21T04:38:06.055Z,1012.13
2017-04-21T04:39:16.388Z,1012.05
2017-04-21T04:40:26.406Z,1012.06
2017-04-21T04:41:36.110Z,1012.06
2017-04-21T04:42:46.433Z,1011.98
2017-04-21T04:43:56.458Z,1011.82
2017-04-21T04:45:06.787Z,1011.84
2017-04-21T04:46:16.791Z,1011.86
2017-04-21T04:47:27.109Z,1011.84
2017-04-21T04:48:37.437Z,1011.86
2017-04-21T04:49:47.803Z,1011.86
2017-04-21T04:50:58.127Z,1011.93
2017-04-21T04:52:08.464Z,1011.96
2017-04-21T04:53:18.809Z,1011.92
2017-04-21T04:54:28.518Z,1012
2017-04-21T04:55:38.764Z,1011.95
2017-04-21T04:56:49.087Z,1012.09
2017-04-21T04:57:59.441Z,1011.91
2017-04-21T04:59:09.451Z,1011.94
2017-04-21T05:00:19.486Z,1011.92
2017-04-21T05:01:29.835Z,1011.94
2017-04-21T05:02:40.175Z,1011.96
2017-04-21T05:03:50.214Z,1011.96
2017-04-21T05:05:00.544Z,1011.96
2017-04-21T05:06:10.869Z,1011.99
2017-04-21T05:07:20.902Z,1011.95
2017-04-21T05:08:31.220Z,1011.98
2017-04-21T05:09:41.008Z,1011.99
2017-04-21T05:10:51.335Z,1012
2017-04-21T05:12:01.895Z,1011.99
2017-04-21T05:13:11.912Z,1011.98
2017-04-21T05:14:21.942Z,1011.99
2017-04-21T05:15:32.277Z,1011.99
2017-04-21T05:16:42.288Z,1012
2017-04-21T05:17:52.670Z,1012.03
2017-04-21T05:19:03.021Z,1011.99
2017-04-21T05:20:13.130Z,1012.01
2017-04-21T05:21:23.704Z,1012.01
2017-04-21T05:22:34.032Z,1012.04
2017-04-21T05:23:44.350Z,1012.02
2017-04-21T05:24:54.684Z,1011.98
2017-04-21T05:26:05.018Z,1011.96
2017-04-21T05:27:15.043Z,1011.96
2017-04-21T05:28:25.358Z,1011.98
2017-04-21T05:29:34.744Z,1012
2017-04-21T05:30:45.103Z,1012.02
2017-04-21T05:31:55.113Z,1012.02
2017-04-21T05:33:05.446Z,1012
2017-04-21T05:34:15.453Z,1012.02
2017-04-21T05:35:25.474Z,1011.98
2017-04-21T05:36:35.496Z,1011.99
2017-04-21T05:37:45.241Z,1011.97
2017-04-21T05:38:55.275Z,1011.92
2017-04-21T05:40:05.314Z,1011.96
2017-04-21T05:41:15.648Z,1011.94
2017-04-21T05:42:25.991Z,1011.94
2017-04-21T05:43:36.010Z,1011.95
2017-04-21T05:44:46.339Z,1011.94
2017-04-21T05:45:56.674Z,1011.94
2017-04-21T05:47:07.005Z,1011.96
2017-04-21T05:48:17.028Z,1011.97
2017-04-21T05:49:27.043Z,1011.95
2017-04-21T05:50:37.385Z,1011.95
2017-04-21T05:51:47.394Z,1011.95
2017-04-21T05:52:57.755Z,1011.97
2017-04-21T05:54:07.767Z,1011.96
2017-04-21T05:55:18.100Z,1011.96
2017-04-21T05:56:27.802Z,1011.98
2017-04-21T05:57:38.057Z,1011.94
2017-04-21T05:58:48.088Z,1011.98
2017-04-21T05:59:58.605Z,1011.97
2017-04-21T06:01:08.783Z,1012.05
2017-04-21T06:02:19.174Z,1012.01
2017-04-21T06:03:29.504Z,1011.99
2017-04-21T06:04:39.837Z,1012.02
2017-04-21T06:05:50.174Z,1012.01
2017-04-21T06:07:00.180Z,1012.08
2017-04-21T06:08:10.199Z,1012.01
2017-04-21T06:09:20.543Z,1011.99
2017-04-21T06:10:30.878Z,1011.97
2017-04-21T06:11:41.142Z,1011.98
2017-04-21T06:12:51.174Z,1011.91
2017-04-21T06:14:01.517Z,1011.93
2017-04-21T06:15:11.537Z,1011.93
2017-04-21T06:16:21.869Z,1011.98
2017-04-21T06:17:32.192Z,1011.96
2017-04-21T06:18:42.528Z,1011.93
2017-04-21T06:19:52.860Z,1011.89
2017-04-21T06:21:03.200Z,1011.95
2017-04-21T06:22:13.529Z,1011.91
2017-04-21T06:23:23.535Z,1011.91
2017-04-21T06:24:33.876Z,1011.86
2017-04-21T06:25:44.205Z,1011.85
2017-04-21T06:26:54.526Z,1011.85
2017-04-21T06:28:04.554Z,1011.87
2017-04-21T06:29:14.559Z,1011.89
2017-04-21T06:30:24.580Z,1011.92
2017-04-21T06:31:34.916Z,1011.85
2017-04-21T06:32:44.629Z,1011.8
2017-04-21T06:33:54.753Z,1011.82
2017-04-21T06:35:05.137Z,1011.79
2017-04-21T06:36:15.455Z,1011.77
2017-04-21T06:37:25.795Z,1011.79
2017-04-21T06:38:36.138Z,1011.81
2017-04-21T06:39:46.148Z,1011.75
2017-04-21T06:40:56.461Z,1011.8
2017-04-21T06:42:06.807Z,1011.81
2017-04-21T06:43:16.833Z,1011.8
2017-04-21T06:44:26.856Z,1011.79
2017-04-21T06:45:36.881Z,1011.83
2017-04-21T06:46:47.227Z,1011.87
2017-04-21T06:47:57.239Z,1011.9
2017-04-21T06:49:07.564Z,1011.9
2017-04-21T06:50:17.900Z,1011.82
2017-04-21T06:51:27.923Z,1011.88
2017-04-21T06:52:37.944Z,1011.91
2017-04-21T06:53:48.287Z,1011.89
2017-04-21T06:54:57.996Z,1011.85
2017-04-21T06:56:08.314Z,1011.88
2017-04-21T06:57:18.329Z,1011.89
2017-04-21T06:58:28.675Z,1011.91
2017-04-21T06:59:39.001Z,1011.9
2017-04-21T07:00:49.343Z,1011.87
2017-04-21T07:01:59.693Z,1011.91
2017-04-21T07:03:10.018Z,1011.93
2017-04-21T07:04:20.368Z,1011.9
2017-04-21T07:05:30.714Z,1011.91
2017-04-21T07:06:41.040Z,1011.89
2017-04-21T07:07:51.566Z,1011.96
2017-04-21T07:09:01.867Z,1011.95
2017-04-21T07:10:12.252Z,1011.89
2017-04-21T07:11:22.617Z,1011.86
2017-04-21T07:12:32.644Z,1011.92
2017-04-21T07:13:42.979Z,1011.95
2017-04-21T07:14:53.312Z,1011.77
2017-04-21T07:16:03.339Z,1011.83
2017-04-21T07:17:13.374Z,1011.87
2017-04-21T07:18:23.401Z,1011.78
2017-04-21T07:19:33.420Z,1011.93
2017-04-21T07:20:43.750Z,1011.79
2017-04-21T07:21:53.793Z,1011.83
2017-04-21T07:23:04.153Z,1011.83
2017-04-21T07:24:14.480Z,1011.75
2017-04-21T07:25:24.823Z,1011.89
2017-04-21T07:26:34.855Z,1011.68
2017-04-21T07:27:45.185Z,1011.74
2017-04-21T07:28:55.213Z,1011.77
2017-04-21T07:30:05.238Z,1011.75
2017-04-21T07:31:15.565Z,1011.72
2017-04-21T07:32:25.585Z,1011.72
2017-04-21T07:33:35.915Z,1011.72
2017-04-21T07:34:46.273Z,1011.71
2017-04-21T07:37:12.241Z,1011.68
2017-04-21T07:38:22.584Z,1011.71
2017-04-21T07:39:32.286Z,1011.74
2017-04-21T07:40:50.039Z,1011.79
2017-04-21T07:42:00.080Z,1011.69
2017-04-21T07:43:10.415Z,1011.67
2017-04-21T07:44:20.698Z,1011.72
2017-04-21T07:45:30.728Z,1011.67
2017-04-21T07:46:40.776Z,1011.59
2017-04-21T07:47:51.125Z,1011.65
2017-04-21T07:49:01.135Z,1011.62
2017-04-21T07:50:11.152Z,1011.76
2017-04-21T07:51:21.187Z,1011.61
2017-04-21T07:52:30.898Z,1011.74
2017-04-21T07:53:41.249Z,1011.63
2017-04-21T07:54:51.586Z,1011.62
2017-04-21T07:56:01.629Z,1011.55
2017-04-21T07:57:11.957Z,1011.6
2017-04-21T07:58:22.292Z,1011.6
2017-04-21T07:59:32.342Z,1011.63
2017-04-21T08:00:42.673Z,1011.57
2017-04-21T08:02:58.264Z,1011.73
2017-04-21T08:04:08.598Z,1011.69
2017-04-21T08:05:18.941Z,1011.67
2017-04-21T08:06:28.325Z,1011.73
2017-04-21T08:07:38.350Z,1011.71
2017-04-21T08:08:48.725Z,1011.83
2017-04-21T08:09:59.070Z,1011.71
2017-04-21T08:11:09.405Z,1011.74
2017-04-21T08:12:19.729Z,1011.69
2017-04-21T08:13:29.755Z,1011.89
2017-04-21T08:14:39.811Z,1011.67
2017-04-21T08:15:50.144Z,1011.63
2017-04-21T08:17:00.579Z,1011.69
2017-04-21T08:18:10.984Z,1011.64
2017-04-21T08:19:21.322Z,1011.65
2017-04-21T08:20:31.671Z,1011.63
2017-04-21T08:21:41.993Z,1011.57
2017-04-21T08:22:52.020Z,1011.55
2017-04-21T08:24:02.047Z,1011.59
2017-04-21T08:25:12.372Z,1011.53
2017-04-21T08:26:22.724Z,1011.57
2017-04-21T08:27:33.061Z,1011.61
2017-04-21T08:28:43.422Z,1011.58
2017-04-21T08:29:53.760Z,1011.65
2017-04-21T08:31:04.100Z,1011.63
2017-04-21T08:32:14.443Z,1011.65
2017-04-21T08:33:24.783Z,1011.61
2017-04-21T08:34:34.796Z,1011.65
2017-04-21T08:35:45.148Z,1011.57
2017-04-21T08:36:55.489Z,1011.53
2017-04-21T08:38:05.510Z,1011.55
2017-04-21T08:39:15.843Z,1011.56
2017-04-21T08:40:26.185Z,1011.64
2017-04-21T08:41:36.510Z,1011.61
2017-04-21T08:42:46.843Z,1011.54
2017-04-21T08:43:57.175Z,1011.58
2017-04-21T08:45:06.888Z,1011.53
2017-04-21T08:46:16.906Z,1011.48
2017-04-21T08:47:27.230Z,1011.56
2017-04-21T08:48:37.259Z,1011.45
2017-04-21T08:49:47.788Z,1011.5
2017-04-21T08:50:58.174Z,1011.48
2017-04-21T08:52:08.195Z,1011.51
2017-04-21T08:53:18.219Z,1011.49
2017-04-21T08:54:28.547Z,1011.66
2017-04-21T08:55:38.252Z,1011.59
2017-04-21T08:56:48.286Z,1011.45
2017-04-21T08:57:58.347Z,1011.48
2017-04-21T08:59:08.719Z,1011.46
2017-04-21T09:00:18.508Z,1011.46
2017-04-21T09:01:28.598Z,1011.5
2017-04-21T09:02:38.623Z,1011.43
2017-04-21T09:03:48.653Z,1011.44
2017-04-21T09:04:58.691Z,1011.47
2017-04-21T09:06:08.737Z,1011.45
2017-04-21T09:07:19.079Z,1011.47
2017-04-21T09:08:29.670Z,1011.44
2017-04-21T09:09:40.008Z,1011.38
2017-04-21T09:10:50.037Z,1011.4
2017-04-21T09:12:00.330Z,1011.4
2017-04-21T09:13:10.665Z,1011.3
2017-04-21T09:14:21.004Z,1011.44
2017-04-21T09:15:31.332Z,1011.46
2017-04-21T09:16:41.359Z,1011.37
2017-04-21T09:17:51.696Z,1011.39
2017-04-21T09:19:01.736Z,1011.34
2017-04-21T09:20:12.088Z,1011.17
2017-04-21T09:21:22.429Z,1011.24
2017-04-21T09:22:33.219Z,1011.17
2017-04-21T09:23:43.590Z,1011.23
2017-04-21T09:24:53.925Z,1011.2
2017-04-21T09:26:04.284Z,1011.29
2017-04-21T09:27:14.325Z,1011.26
2017-04-21T09:28:24.657Z,1011.2
2017-04-21T09:29:35.018Z,1011.19
2017-04-21T09:30:45.168Z,1011.2
2017-04-21T09:34:30.727Z,1011.2
2017-04-21T09:37:18.098Z,1011.08
2017-04-21T09:38:59.569Z,1011.05
2017-04-21T09:40:09.896Z,1010.99
2017-04-21T09:41:20.253Z,1011
2017-04-21T09:42:30.596Z,1011.02
2017-04-21T09:44:04.428Z,1010.97
2017-04-21T09:45:16.746Z,1011.01
2017-04-21T09:46:26.821Z,1010.96
2017-04-21T09:47:36.849Z,1010.87
2017-04-21T09:48:46.862Z,1010.84
2017-04-21T09:49:57.189Z,1010.91
2017-04-21T09:51:10.360Z,1010.88
2017-04-21T09:52:32.736Z,1010.83
2017-04-21T10:03:41.668Z,1010.61
2017-04-21T10:09:24.107Z,1010.46
2017-04-21T10:10:34.593Z,1010.45
2017-04-21T10:11:44.745Z,1010.42
2017-04-21T10:12:55.069Z,1010.43
2017-04-21T10:14:05.411Z,1010.47
2017-04-21T10:15:15.158Z,1010.36
2017-04-21T10:16:25.495Z,1010.34
2017-04-21T10:17:35.838Z,1010.31
2017-04-21T10:18:46.191Z,1010.32
2017-04-21T10:19:56.222Z,1010.21
2017-04-21T10:21:06.570Z,1010.11
2017-04-21T10:22:16.904Z,1010.12
2017-04-21T10:23:27.244Z,1010.21
2017-04-21T10:24:37.586Z,1010.2
2017-04-21T10:25:47.626Z,1010.29
2017-04-21T10:26:57.972Z,1010.11
2017-04-21T10:28:08.314Z,1010.1
2017-04-21T10:29:18.663Z,1010.16
2017-04-21T10:30:29.235Z,1010.11
2017-04-21T10:31:39.286Z,1010.07
2017-04-21T10:32:49.617Z,1010.01
2017-04-21T10:33:59.982Z,1010.15
2017-04-21T10:35:10.317Z,1010.08
2017-04-21T10:36:20.665Z,1010.09
2017-04-21T10:37:31.047Z,1009.92
2017-04-21T10:38:41.401Z,1009.97
2017-04-21T10:39:51.851Z,1010.01
2017-04-21T10:41:02.222Z,1009.96
2017-04-21T10:42:12.561Z,1010.02
2017-04-21T10:43:22.596Z,1010.06
2017-04-21T10:44:32.611Z,1009.96
2017-04-21T10:45:42.939Z,1009.91
2017-04-21T10:46:52.961Z,1009.89
2017-04-21T10:48:02.681Z,1009.9
2017-04-21T10:49:13.020Z,1009.78
2017-04-21T10:50:23.365Z,1009.78
2017-04-21T10:51:33.074Z,1009.84
2017-04-21T10:52:42.788Z,1009.77
2017-04-21T10:53:52.511Z,1009.79
2017-04-21T10:55:02.527Z,1009.78
2017-04-21T10:56:12.565Z,1009.7
2017-04-21T10:57:22.903Z,1009.61
2017-04-21T10:58:33.238Z,1009.65
2017-04-21T10:59:43.749Z,1009.67
2017-04-21T11:00:54.034Z,1009.65
2017-04-21T11:02:04.334Z,1009.6
2017-04-21T11:03:14.325Z,1009.57
2017-04-21T11:04:24.581Z,1009.58
2017-04-21T11:05:35.829Z,1009.53
2017-04-21T11:06:45.567Z,1009.56
2017-04-21T11:07:55.952Z,1009.51
2017-04-21T11:09:06.818Z,1009.55
2017-04-21T11:10:16.960Z,1009.58
2017-04-21T11:11:26.921Z,1009.62
2017-04-21T11:12:37.862Z,1009.57
2017-04-21T11:13:48.170Z,1009.53
2017-04-21T11:14:58.403Z,1009.56
2017-04-21T11:16:08.677Z,1009.5
2017-04-21T11:17:19.143Z,1009.46
2017-04-21T11:18:29.742Z,1009.5
2017-04-21T11:19:40.023Z,1009.57
2017-04-21T11:20:50.298Z,1009.39
2017-04-21T11:22:00.576Z,1009.36
2017-04-21T11:23:10.868Z,1009.34
2017-04-21T11:24:20.827Z,1009.41
2017-04-21T11:25:31.103Z,1009.22
2017-04-21T11:26:42.240Z,1009.27
2017-04-21T11:27:52.372Z,1009.4
2017-04-21T11:29:02.649Z,1009.42
2017-04-21T11:30:12.906Z,1009.36
2017-04-21T11:31:23.172Z,1009.27
2017-04-21T11:32:33.443Z,1009.39
2017-04-21T11:33:43.714Z,1009.32
2017-04-21T11:34:54.905Z,1009.33
2017-04-21T11:36:05.361Z,1009.21
2017-04-21T11:37:15.314Z,1009.21
2017-04-21T11:38:25.919Z,1009.2
2017-04-21T11:39:36.574Z,1009.19
2017-04-21T11:40:46.890Z,1009.16
2017-04-21T11:41:57.173Z,1009.17
2017-04-21T11:43:07.845Z,1009.17
2017-04-21T11:44:18.105Z,1009.12
2017-04-21T11:45:28.392Z,1009.09
2017-04-21T11:46:38.678Z,1008.99
2017-04-21T11:47:48.970Z,1008.94
2017-04-21T11:48:58.928Z,1009
2017-04-21T11:50:09.212Z,1009.23
2017-04-21T11:51:19.480Z,1009.03
2017-04-21T11:52:29.445Z,1009.02
2017-04-21T11:53:39.714Z,1008.97
2017-04-21T11:54:49.982Z,1008.8
2017-04-21T11:56:00.259Z,1008.84
2017-04-21T11:57:10.234Z,1008.9
2017-04-21T11:58:20.203Z,1008.89
2017-04-21T11:59:30.182Z,1008.95
2017-04-21T12:00:40.487Z,1008.82
2017-04-21T12:01:50.755Z,1008.93
2017-04-21T12:03:00.718Z,1008.86
2017-04-21T12:04:10.670Z,1008.91
2017-04-21T12:05:20.638Z,1008.77
2017-04-21T12:06:31.076Z,1008.85
2017-04-21T12:07:41.036Z,1008.92
2017-04-21T12:08:50.751Z,1008.84
2017-04-21T12:10:01.078Z,1008.75
2017-04-21T12:11:11.356Z,1008.7
2017-04-21T12:12:21.320Z,1008.69
2017-04-21T12:13:31.585Z,1008.69
2017-04-21T12:14:41.871Z,1008.72
2017-04-21T12:15:51.864Z,1008.65
2017-04-21T12:17:02.128Z,1008.6
2017-04-21T12:18:12.685Z,1008.59
2017-04-21T12:19:22.649Z,1008.57
2017-04-21T12:20:32.616Z,1008.48
2017-04-21T12:21:42.927Z,1008.47
2017-04-21T12:22:53.212Z,1008.43
2017-04-21T12:24:03.505Z,1008.39
2017-04-21T12:25:13.482Z,1008.42
2017-04-21T12:26:23.451Z,1008.43
2017-04-21T12:27:33.789Z,1008.37
2017-04-21T12:28:44.055Z,1008.4
2017-04-21T12:29:54.330Z,1008.28
2017-04-21T12:31:04.599Z,1008.27
2017-04-21T12:32:14.875Z,1008.25
2017-04-21T12:33:24.844Z,1008.28
2017-04-21T12:34:35.120Z,1008.2
2017-04-21T12:35:45.070Z,1008.1
2017-04-21T12:36:55.353Z,1008.22
2017-04-21T12:38:05.618Z,1008.12
2017-04-21T12:39:15.886Z,1008.18
2017-04-21T12:40:26.343Z,1008.11
2017-04-21T12:41:36.512Z,1007.99
2017-04-21T12:42:46.801Z,1008.14
2017-04-21T12:43:57.073Z,1008.17
2017-04-21T12:45:07.341Z,1007.98
2017-04-21T12:46:17.616Z,1007.95
2017-04-21T12:47:27.584Z,1007.91
2017-04-21T12:48:37.854Z,1007.94
2017-04-21T12:49:48.127Z,1007.87
2017-04-21T12:50:58.428Z,1007.82
2017-04-21T12:52:08.412Z,1007.81
2017-04-21T12:53:18.691Z,1007.97
2017-04-21T12:54:28.643Z,1007.85
2017-04-21T12:55:38.917Z,1007.8
2017-04-21T12:56:49.196Z,1007.77
2017-04-21T12:57:59.163Z,1007.7
2017-04-21T12:59:09.452Z,1007.7
2017-04-21T13:00:19.793Z,1007.76
2017-04-21T13:01:29.493Z,1007.69
2017-04-21T13:02:39.523Z,1007.75
2017-04-21T13:03:49.854Z,1007.77
2017-04-21T13:04:59.894Z,1007.66
2017-04-21T13:06:09.932Z,1007.66
2017-04-21T13:07:20.254Z,1007.61
2017-04-21T13:08:30.595Z,1007.63
2017-04-21T13:09:40.946Z,1007.63
2017-04-21T13:10:51.504Z,1007.6
2017-04-21T13:12:01.606Z,1007.59
2017-04-21T13:13:11.741Z,1007.56
2017-04-21T13:14:22.441Z,1007.56
2017-04-21T13:15:32.791Z,1007.54
2017-04-21T13:16:43.188Z,1007.61
2017-04-21T13:17:53.551Z,1007.52
2017-04-21T13:19:03.574Z,1007.56
2017-04-21T13:20:13.922Z,1007.5
2017-04-21T13:21:24.238Z,1007.54
2017-04-21T13:22:34.266Z,1007.48
2017-04-21T13:23:44.284Z,1007.48
2017-04-21T13:24:54.331Z,1007.45
2017-04-21T13:26:04.686Z,1007.52
2017-04-21T13:27:15.037Z,1007.48
2017-04-21T13:28:25.376Z,1007.56
2017-04-21T13:29:35.708Z,1007.46
2017-04-21T13:30:46.057Z,1007.47
2017-04-21T13:31:56.095Z,1007.4
2017-04-21T13:33:06.431Z,1007.37
2017-04-21T13:34:16.802Z,1007.38
2017-04-21T13:35:26.521Z,1007.32
2017-04-21T13:36:36.562Z,1007.33
2017-04-21T13:37:46.900Z,1007.4
2017-04-21T13:38:57.255Z,1007.29
2017-04-21T13:40:07.285Z,1007.29
2017-04-21T13:41:17.618Z,1007.21
2017-04-21T13:42:27.654Z,1007.3
2017-04-21T13:43:37.995Z,1007.29
2017-04-21T13:44:48.378Z,1007.3
2017-04-21T13:45:57.788Z,1007.24
2017-04-21T13:47:08.110Z,1007.17
2017-04-21T13:48:18.172Z,1007.24
2017-04-21T13:49:28.225Z,1007.15
2017-04-21T13:50:38.572Z,1007.14
2017-04-21T13:51:48.944Z,1007.18
2017-04-21T13:52:58.719Z,1007.11
2017-04-21T13:54:09.118Z,1007.01
2017-04-21T13:55:19.461Z,1007.04
2017-04-21T13:56:29.945Z,1007.06
2017-04-21T13:57:40.083Z,1007.07
2017-04-21T13:58:50.151Z,1007.09
2017-04-21T14:00:00.499Z,1007.03
2017-04-21T14:01:10.221Z,1006.98
2017-04-21T14:02:19.931Z,1006.97
2017-04-21T14:03:30.278Z,1006.97
2017-04-21T14:04:40.617Z,1006.88
2017-04-21T14:05:51.005Z,1006.86
2017-04-21T14:07:01.337Z,1006.94
2017-04-21T14:08:11.359Z,1006.87
2017-04-21T14:09:21.394Z,1006.8
2017-04-21T14:10:31.730Z,1006.85
2017-04-21T14:11:42.072Z,1006.86
2017-04-21T14:12:52.135Z,1006.77
2017-04-21T14:14:02.156Z,1006.84
2017-04-21T14:15:12.183Z,1006.8
2017-04-21T14:16:22.210Z,1006.84
2017-04-21T14:17:32.561Z,1006.76
2017-04-21T14:18:42.613Z,1006.88
2017-04-21T14:19:52.954Z,1006.85
2017-04-21T14:21:02.994Z,1006.77
2017-04-21T14:22:13.309Z,1006.76
2017-04-21T14:23:23.414Z,1006.68
2017-04-21T14:24:33.815Z,1006.76
2017-04-21T14:25:44.187Z,1006.69
2017-04-21T14:26:54.534Z,1006.72
2017-04-21T14:28:04.572Z,1006.67
2017-04-21T14:29:14.609Z,1006.75
2017-04-21T14:30:24.644Z,1006.7
2017-04-21T14:31:34.677Z,1006.61
2017-04-21T14:32:45.025Z,1006.6
2017-04-21T14:33:55.038Z,1006.62
2017-04-21T14:35:05.391Z,1006.64
2017-04-21T14:36:15.738Z,1006.54
2017-04-21T14:37:26.076Z,1006.6
2017-04-21T14:38:36.108Z,1006.58
2017-04-21T14:39:46.732Z,1006.61
2017-04-21T14:40:57.107Z,1006.58
2017-04-21T14:42:07.492Z,1006.58
2017-04-21T14:43:17.924Z,1006.56
2017-04-21T14:44:28.259Z,1006.55
2017-04-21T14:45:38.282Z,1006.57
2017-04-21T14:46:48.398Z,1006.58
2017-04-21T14:47:58.750Z,1006.5
2017-04-21T14:49:09.088Z,1006.48
2017-04-21T14:50:19.465Z,1006.48
2017-04-21T14:51:29.482Z,1006.52
2017-04-21T14:52:39.838Z,1006.52
2017-04-21T14:53:50.155Z,1006.5
2017-04-21T14:55:00.211Z,1006.51
2017-04-21T14:56:10.246Z,1006.55
2017-04-21T14:57:20.607Z,1006.53
2017-04-21T14:58:30.948Z,1006.56
2017-04-21T14:59:41.289Z,1006.53
2017-04-21T15:00:51.626Z,1006.55
2017-04-21T15:02:01.971Z,1006.55
2017-04-21T15:03:12.007Z,1006.5
2017-04-21T15:04:22.350Z,1006.47